Time;durP1;ratioP1;P1;durP2;ratioP2;P2;SDS_P1;SDS_P2;PMS_P1;PMS_P2;Temp;Humidity;BMP_temperature;BMP_pressure;BME280_temperature;BME280_humidity;BME280_pressure;Samples;Min_cycle;Max_cycle;Signal;HPM_P1;HPM_P2
2022/11/12 00:01:09;;;;;;;;;;;;;;;7.28;100.00;99642.84;5121161;28;19984;-59
2022/11/12 00:03:36;;;;;;;;;;;;;;;7.19;100.00;99653.84;5118004;28;19991;-58
2022/11/12 00:06:02;;;;;;;;;;;;;;;7.13;100.00;99647.50;5118120;28;19951;-59
2022/11/12 00:08:28;;;;;;;;;;;;;;;7.22;100.00;99645.47;5121259;28;19984;-58
2022/11/12 00:10:56;;;;;;;;;;;;;;;7.30;100.00;99645.31;5121283;28;20014;-58
2022/11/12 00:13:22;;;;;;;;;;;;;;;7.16;100.00;99647.09;5119182;28;19955;-58
2022/11/12 00:15:48;;;;;;;;;;;;;;;7.14;100.00;99643.81;5117991;28;19967;-60
2022/11/12 00:18:15;;;;;;;;;;;;;;;7.36;100.00;99637.38;5119387;28;19983;-59
2022/11/12 00:20:41;;;;;;;;;;;;;;;7.32;100.00;99641.44;5121351;28;19931;-58
2022/11/12 00:23:08;;;;;;;;;;;;;;;7.43;100.00;99630.22;5125248;28;19974;-58
2022/11/12 00:25:34;;;;;;;;;;;;;;;7.64;100.00;99637.22;5122306;28;19987;-60
2022/11/12 00:28:02;;;;;;;;;;;;;;;7.77;100.00;99633.78;5122280;28;19931;-59
2022/11/12 00:30:29;;;;;;;;;;;;;;;7.62;100.00;99641.91;5125481;28;19928;-60
2022/11/12 00:32:55;;;;;;;;;;;;;;;7.54;100.00;99636.78;5125482;28;19934;-60
2022/11/12 00:35:22;;;;;;;;;;;;;;;7.66;100.00;99637.84;5123291;28;19919;-59
2022/11/12 00:37:52;;;;;;;;;;;;;;;7.76;100.00;99637.44;5121888;28;20027;-58
2022/11/12 00:40:19;;;;;;;;;;;;;;;7.68;100.00;99641.09;5123603;28;19924;-60
2022/11/12 00:42:45;;;;;;;;;;;;;;;7.53;100.00;99632.47;5125386;28;20007;-58
2022/11/12 00:45:13;;;;;;;;;;;;;;;7.31;100.00;99639.78;5106299;28;20011;-61
2022/11/12 00:47:39;;;;;;;;;;;;;;;7.19;100.00;99630.75;5121737;28;19972;-58
2022/11/12 00:50:06;;;;;;;;;;;;;;;7.20;100.00;99637.72;5121827;28;20683;-59
2022/11/12 00:52:32;;;;;;;;;;;;;;;7.59;100.00;99627.19;5124988;28;19987;-58
2022/11/12 00:54:59;;;;;;;;;;;;;;;7.59;100.00;99632.50;5125247;28;20035;-60
2022/11/12 00:57:25;;;;;;;;;;;;;;;7.65;100.00;99641.50;5122527;28;20027;-58
2022/11/12 00:59:51;;;;;;;;;;;;;;;7.70;100.00;99633.75;5121503;28;19956;-58
2022/11/12 01:02:21;;;;;;;;;;;;;;;7.86;100.00;99629.88;5122856;28;19980;-59
2022/11/12 01:04:47;;;;;;;;;;;;;;;7.71;100.00;99619.41;5124591;28;19928;-60
2022/11/12 01:07:15;;;;;;;;;;;;;;;7.68;100.00;99629.63;5123634;28;19959;-59
2022/11/12 01:09:41;;;;;;;;;;;;;;;7.85;100.00;99622.91;5121306;28;19924;-59
2022/11/12 01:12:08;;;;;;;;;;;;;;;7.71;100.00;99624.75;5121347;28;20003;-59
2022/11/12 01:14:35;;;;;;;;;;;;;;;7.75;100.00;99615.34;5124757;28;19979;-59
2022/11/12 01:17:02;;;;;;;;;;;;;;;7.82;100.00;99610.84;5124617;28;19951;-59
2022/11/12 01:19:29;;;;;;;;;;;;;;;7.84;100.00;99597.34;5121484;28;19930;-60
2022/11/12 01:21:56;;;;;;;;;;;;;;;8.02;100.00;99601.03;5121015;28;19978;-60
2022/11/12 01:24:22;;;;;;;;;;;;;;;8.11;100.00;99598.97;5123752;28;19955;-58
2022/11/12 01:26:48;;;;;;;;;;;;;;;8.13;100.00;99592.44;5124563;28;19983;-60
2022/11/12 01:29:14;;;;;;;;;;;;;;;7.93;100.00;99596.94;5123496;28;19924;-60
2022/11/12 01:31:41;;;;;;;;;;;;;;;7.65;100.00;99598.97;5120852;28;20227;-60
2022/11/12 01:34:08;;;;;;;;;;;;;;;7.83;100.00;99587.75;5120923;28;20566;-58
2022/11/12 01:36:37;;;;;;;;;;;;;;;7.99;100.00;99598.78;5124238;28;19924;-60
2022/11/12 01:39:05;;;;;;;;;;;;;;;7.98;100.00;99589.13;5124570;28;19955;-59
2022/11/12 01:41:32;;;;;;;;;;;;;;;7.96;100.00;99585.88;5120743;28;20053;-60
2022/11/12 01:44:09;;;;;;;;;;;;;;;8.02;100.00;99578.91;5120897;28;19960;-59
2022/11/12 01:46:37;;;;;;;;;;;;;;;7.90;100.00;99580.56;5120787;28;19931;-58
2022/11/12 01:49:05;;;;;;;;;;;;;;;8.00;100.00;99584.44;5120549;28;19987;-58
2022/11/12 01:51:34;;;;;;;;;;;;;;;7.69;100.00;99583.41;5112057;28;19963;-59
2022/11/12 01:54:07;;;;;;;;;;;;;;;7.58;100.00;99592.84;5120791;28;19924;-59
2022/11/12 01:56:33;;;;;;;;;;;;;;;7.76;100.00;99576.28;5120520;28;19995;-60
2022/11/12 01:59:02;;;;;;;;;;;;;;;7.39;100.00;99589.13;5120535;28;19995;-59
2022/11/12 02:01:28;;;;;;;;;;;;;;;7.22;100.00;99582.53;5123642;28;19923;-59
2022/11/12 02:03:55;;;;;;;;;;;;;;;7.23;100.00;99596.63;5123668;28;19955;-59
2022/11/12 02:06:22;;;;;;;;;;;;;;;7.48;100.00;99590.56;5121079;28;19979;-59
2022/11/12 02:08:49;;;;;;;;;;;;;;;7.36;100.00;99591.34;5120063;28;19930;-58
2022/11/12 02:11:18;;;;;;;;;;;;;;;7.18;100.00;99581.28;5121589;28;19927;-59
2022/11/12 02:13:59;;;;;;;;;;;;;;;7.31;100.00;99572.53;5123582;28;19939;-60
2022/11/12 02:16:28;;;;;;;;;;;;;;;7.20;100.00;99579.25;5120889;28;20699;-60
2022/11/12 02:18:55;;;;;;;;;;;;;;;7.48;100.00;99581.75;5119826;28;19987;-60
2022/11/12 02:21:23;;;;;;;;;;;;;;;7.07;100.00;99577.38;5121672;28;19995;-59
2022/11/12 02:23:56;;;;;;;;;;;;;;;7.35;100.00;99571.94;5125685;28;19960;-59
2022/11/12 02:26:23;;;;;;;;;;;;;;;7.39;100.00;99572.34;5122057;28;20023;-59
2022/11/12 02:28:49;;;;;;;;;;;;;;;7.69;100.00;99570.94;5123194;28;19979;-58
2022/11/12 02:31:15;;;;;;;;;;;;;;;7.87;100.00;99565.00;5121992;28;19950;-58
2022/11/12 02:33:42;;;;;;;;;;;;;;;7.76;100.00;99574.44;5119583;28;20024;-60
2022/11/12 02:36:08;;;;;;;;;;;;;;;7.45;100.00;99571.53;5119706;28;20007;-59
2022/11/12 02:38:36;;;;;;;;;;;;;;;7.26;100.00;99569.66;5122955;28;19923;-60
2022/11/12 02:41:02;;;;;;;;;;;;;;;7.22;100.00;99569.22;5122887;28;19970;-59
2022/11/12 02:43:29;;;;;;;;;;;;;;;7.58;100.00;99576.88;5119675;28;19934;-59
2022/11/12 02:45:55;;;;;;;;;;;;;;;7.54;100.00;99575.63;5118848;28;19987;-58
2022/11/12 02:48:21;;;;;;;;;;;;;;;7.30;100.00;99585.00;5121439;28;19962;-58
2022/11/12 02:50:48;;;;;;;;;;;;;;;6.95;100.00;99586.94;5122803;28;19967;-60
2022/11/12 02:53:14;;;;;;;;;;;;;;;6.95;100.00;99596.75;5122266;28;19935;-58
2022/11/12 02:55:42;;;;;;;;;;;;;;;6.76;100.00;99594.81;5100960;28;19930;-58
2022/11/12 02:58:09;;;;;;;;;;;;;;;6.63;100.00;99587.59;5119181;28;19952;-59
2022/11/12 03:00:35;;;;;;;;;;;;;;;6.75;100.00;99595.81;5121603;28;19987;-59
2022/11/12 03:03:01;;;;;;;;;;;;;;;6.51;100.00;99590.00;5122771;28;19959;-59
2022/11/12 03:05:28;;;;;;;;;;;;;;;6.29;100.00;99590.25;5119786;28;19959;-59
2022/11/12 03:07:58;;;;;;;;;;;;;;;6.41;100.00;99594.00;5119170;28;20018;-59
2022/11/12 03:10:25;;;;;;;;;;;;;;;6.36;100.00;99591.97;5121548;28;19940;-59
2022/11/12 03:12:53;;;;;;;;;;;;;;;6.37;100.00;99592.78;5122365;28;19923;-59
2022/11/12 03:15:19;;;;;;;;;;;;;;;6.86;100.00;99592.63;5120438;28;19945;-58
2022/11/12 03:17:46;;;;;;;;;;;;;;;6.57;100.00;99588.38;5118463;28;19992;-57
2022/11/12 03:20:12;;;;;;;;;;;;;;;6.42;100.00;99585.03;5119236;28;20023;-58
2022/11/12 03:22:39;;;;;;;;;;;;;;;6.77;100.00;99588.50;5122540;28;19966;-59
2022/11/12 03:25:06;;;;;;;;;;;;;;;7.07;100.00;99587.19;5122096;28;19998;-58
2022/11/12 03:27:33;;;;;;;;;;;;;;;7.25;100.00;99587.44;5110204;28;19931;-58
2022/11/12 03:30:01;;;;;;;;;;;;;;;7.17;100.00;99586.81;5109899;28;20009;-60
2022/11/12 03:32:27;;;;;;;;;;;;;;;7.22;100.00;99593.16;5109823;28;19963;-58
2022/11/12 03:34:53;;;;;;;;;;;;;;;7.25;100.00;99595.41;5110016;28;19944;-59
2022/11/12 03:37:19;;;;;;;;;;;;;;;7.10;100.00;99586.78;5109829;28;19946;-58
2022/11/12 03:39:46;;;;;;;;;;;;;;;7.21;100.00;99593.38;5109694;28;20007;-59
2022/11/12 03:42:12;;;;;;;;;;;;;;;7.27;100.00;99582.72;5109762;28;20011;-59
2022/11/12 03:44:38;;;;;;;;;;;;;;;7.17;100.00;99594.78;5109545;28;19992;-59
2022/11/12 03:47:06;;;;;;;;;;;;;;;7.43;100.00;99594.81;5109736;28;20005;-59
2022/11/12 03:49:32;;;;;;;;;;;;;;;7.25;100.00;99595.41;5118025;28;20309;-59
2022/11/12 03:51:59;;;;;;;;;;;;;;;7.44;100.00;99588.50;5117842;28;19990;-59
2022/11/12 03:54:25;;;;;;;;;;;;;;;7.45;100.00;99587.50;5121193;28;19924;-59
2022/11/12 03:56:51;;;;;;;;;;;;;;;6.83;100.00;99585.06;5120639;28;19987;-59
2022/11/12 03:59:18;;;;;;;;;;;;;;;6.62;100.00;99587.81;5119778;28;20135;-59
2022/11/12 04:01:44;;;;;;;;;;;;;;;6.40;100.00;99589.72;5117724;28;20063;-59
2022/11/12 04:04:12;;;;;;;;;;;;;;;6.40;100.00;99590.56;5118226;28;20034;-59
2022/11/12 04:09:21;;;;;;;;;;;;;;;6.47;100.00;99587.91;5087776;28;19919;-59
2022/11/12 04:11:47;;;;;;;;;;;;;;;6.53;100.00;99584.47;5117733;28;19988;-58
2022/11/12 04:14:13;;;;;;;;;;;;;;;6.47;100.00;99580.78;5118488;28;19935;-59
2022/11/12 04:22:09;;;;;;;;;;;;;;;7.09;100.00;99581.69;5118331;28;19978;-59
2022/11/12 04:27:21;;;;;;;;;;;;;;;6.97;100.00;99586.72;5119094;28;19930;-59
2022/11/12 04:32:33;;;;;;;;;;;;;;;6.41;100.00;99578.91;5117512;28;19924;-59
2022/11/12 04:35:01;;;;;;;;;;;;;;;6.74;100.00;99572.97;5117597;28;20019;-59
2022/11/12 04:37:28;;;;;;;;;;;;;;;6.48;100.00;99578.94;5120117;28;19928;-59
2022/11/12 04:44:58;;;;;;;;;;;;;;;6.58;100.00;99581.25;5120982;28;19955;-59
2022/11/12 04:45:25;;;;;;;;;;;;;;;6.32;100.00;99582.75;5119924;28;19999;-59
2022/11/12 04:47:51;;;;;;;;;;;;;;;6.59;100.00;99583.72;5120823;28;19989;-58
2022/11/12 04:50:19;;;;;;;;;;;;;;;6.62;100.00;99579.84;5119214;28;19924;-58
2022/11/12 04:52:45;;;;;;;;;;;;;;;6.43;100.00;99581.38;5122749;28;19946;-60
2022/11/12 04:55:12;;;;;;;;;;;;;;;6.36;100.00;99585.81;5120267;28;19971;-59
2022/11/12 04:57:38;;;;;;;;;;;;;;;6.12;100.00;99581.81;5117456;28;20019;-59
2022/11/12 05:00:05;;;;;;;;;;;;;;;5.92;100.00;99586.13;5117436;28;19952;-59
2022/11/12 05:02:32;;;;;;;;;;;;;;;6.58;100.00;99583.91;5120919;28;19988;-59
2022/11/12 05:04:58;;;;;;;;;;;;;;;6.21;100.00;99571.84;5120573;28;20006;-59
2022/11/12 05:07:25;;;;;;;;;;;;;;;6.35;100.00;99574.38;5118524;28;19980;-60
2022/11/12 05:09:52;;;;;;;;;;;;;;;6.29;100.00;99571.69;5102905;28;19963;-59
2022/11/12 05:12:18;;;;;;;;;;;;;;;6.27;100.00;99573.72;5122669;28;20019;-59
2022/11/12 05:14:44;;;;;;;;;;;;;;;5.93;100.00;99566.56;5124472;28;19962;-60
2022/11/12 05:17:11;;;;;;;;;;;;;;;6.49;100.00;99569.97;5123969;28;19984;-58
2022/11/12 05:19:37;;;;;;;;;;;;;;;6.57;100.00;99571.63;5120905;28;19984;-59
2022/11/12 05:22:06;;;;;;;;;;;;;;;6.32;100.00;99574.78;5120913;28;19956;-60
2022/11/12 05:24:35;;;;;;;;;;;;;;;6.20;100.00;99579.00;5128933;28;19977;-60
2022/11/12 05:27:02;;;;;;;;;;;;;;;6.21;100.00;99564.72;5120593;28;19983;-58
2022/11/12 05:29:28;;;;;;;;;;;;;;;6.21;100.00;99572.69;5123628;28;19966;-58
2022/11/12 05:31:55;;;;;;;;;;;;;;;6.14;100.00;99569.16;5123967;28;19963;-58
2022/11/12 05:34:21;;;;;;;;;;;;;;;6.08;100.00;99571.75;5122010;28;20112;-58
2022/11/12 05:36:47;;;;;;;;;;;;;;;6.11;100.00;99572.19;5120093;28;19931;-59
2022/11/12 05:39:14;;;;;;;;;;;;;;;6.18;100.00;99577.56;5121107;28;19984;-59
2022/11/12 05:41:41;;;;;;;;;;;;;;;6.01;100.00;99571.72;5123773;28;19978;-58
2022/11/12 05:44:08;;;;;;;;;;;;;;;5.91;100.00;99571.25;5124013;28;19924;-59
2022/11/12 05:46:34;;;;;;;;;;;;;;;6.05;100.00;99572.16;5120536;28;20264;-59
2022/11/12 05:49:00;;;;;;;;;;;;;;;6.11;100.00;99571.38;5120414;28;19964;-59
2022/11/12 05:51:26;;;;;;;;;;;;;;;5.98;100.00;99572.09;5123062;28;19976;-58
2022/11/12 05:53:53;;;;;;;;;;;;;;;5.95;100.00;99577.78;5125399;28;20019;-59
2022/11/12 05:56:19;;;;;;;;;;;;;;;5.92;100.00;99572.88;5121487;28;19995;-59
2022/11/12 05:58:47;;;;;;;;;;;;;;;5.99;100.00;99573.75;5123475;28;19979;-58
2022/11/12 06:01:13;;;;;;;;;;;;;;;5.90;100.00;99580.19;5122627;28;19955;-59
2022/11/12 06:03:39;;;;;;;;;;;;;;;5.87;100.00;99581.41;5119650;28;19969;-59
2022/11/12 06:06:06;;;;;;;;;;;;;;;6.03;100.00;99574.19;5119882;28;20010;-60
2022/11/12 06:08:32;;;;;;;;;;;;;;;6.44;100.00;99575.88;5111398;28;19992;-59
2022/11/12 06:10:59;;;;;;;;;;;;;;;6.53;100.00;99586.34;5111364;28;20035;-59
2022/11/12 06:13:25;;;;;;;;;;;;;;;6.65;100.00;99592.72;5111327;28;20015;-58
2022/11/12 06:15:54;;;;;;;;;;;;;;;6.43;100.00;99592.00;5111236;28;19924;-59
2022/11/12 06:18:20;;;;;;;;;;;;;;;6.44;100.00;99594.44;5111540;28;19987;-59
2022/11/12 06:21:18;;;;;;;;;;;;;;;6.36;100.00;99594.59;5110419;28;19992;-58
2022/11/12 06:23:34;;;;;;;;;;;;;;;6.29;100.00;99587.59;5120026;28;19946;-59
2022/11/12 06:26:00;;;;;;;;;;;;;;;6.08;100.00;99599.09;5119316;28;19924;-59
2022/11/12 06:28:26;;;;;;;;;;;;;;;6.30;100.00;99598.03;5122066;28;19958;-59
2022/11/12 06:30:54;;;;;;;;;;;;;;;6.53;100.00;99600.41;5122747;28;20008;-59
2022/11/12 06:33:20;;;;;;;;;;;;;;;6.60;100.00;99600.44;5120916;28;19951;-58
2022/11/12 06:35:47;;;;;;;;;;;;;;;6.48;100.00;99598.34;5119090;28;19970;-58
2022/11/12 06:38:13;;;;;;;;;;;;;;;6.75;100.00;99598.47;5119983;28;19959;-59
2022/11/12 06:40:39;;;;;;;;;;;;;;;6.86;100.00;99605.91;5122391;28;19938;-59
2022/11/12 06:43:06;;;;;;;;;;;;;;;6.78;100.00;99600.75;5122585;28;20458;-60
2022/11/12 06:45:32;;;;;;;;;;;;;;;6.72;100.00;99593.56;5118905;28;19935;-59
2022/11/12 06:48:00;;;;;;;;;;;;;;;6.87;100.00;99597.72;5119120;28;19975;-59
2022/11/12 06:50:26;;;;;;;;;;;;;;;7.09;100.00;99595.75;5121831;28;19931;-58
2022/11/12 06:52:57;;;;;;;;;;;;;;;7.23;100.00;99600.13;5123509;28;20340;-58
2022/11/12 06:55:23;;;;;;;;;;;;;;;6.80;100.00;99602.22;5120425;28;20000;-60
2022/11/12 06:57:51;;;;;;;;;;;;;;;6.94;100.00;99605.72;5119155;28;19978;-60
2022/11/12 07:00:17;;;;;;;;;;;;;;;6.63;100.00;99595.56;5120451;28;19920;-59
2022/11/12 07:02:44;;;;;;;;;;;;;;;7.01;100.00;99598.59;5122027;28;19931;-59
2022/11/12 07:05:11;;;;;;;;;;;;;;;7.06;100.00;99599.63;5122125;28;19990;-59
2022/11/12 07:07:38;;;;;;;;;;;;;;;7.22;100.00;99594.97;5118706;28;19924;-60
2022/11/12 07:10:04;;;;;;;;;;;;;;;7.21;100.00;99602.13;5119057;28;19924;-59
2022/11/12 07:12:31;;;;;;;;;;;;;;;7.07;100.00;99603.94;5122564;28;19927;-58
2022/11/12 07:14:57;;;;;;;;;;;;;;;7.23;100.00;99599.28;5122479;28;20002;-59
2022/11/12 07:17:23;;;;;;;;;;;;;;;7.34;100.00;99599.50;5119832;28;19983;-59
2022/11/12 07:19:50;;;;;;;;;;;;;;;7.39;100.00;99604.25;5118835;28;19978;-60
2022/11/12 07:22:17;;;;;;;;;;;;;;;7.33;100.00;99600.56;5120914;28;19979;-60
2022/11/12 07:24:44;;;;;;;;;;;;;;;7.40;100.00;99603.19;5122269;28;19985;-59
2022/11/12 07:27:10;;;;;;;;;;;;;;;7.21;100.00;99606.66;5121984;28;19930;-60
2022/11/12 07:29:36;;;;;;;;;;;;;;;6.87;100.00;99611.00;5118491;28;20090;-59
2022/11/12 07:32:03;;;;;;;;;;;;;;;6.55;100.00;99616.97;5118201;28;19924;-59
2022/11/12 07:34:29;;;;;;;;;;;;;;;6.42;100.00;99617.72;5121250;28;19983;-59
2022/11/12 07:36:55;;;;;;;;;;;;;;;6.56;100.00;99615.94;5103178;28;19979;-59
2022/11/12 07:39:23;;;;;;;;;;;;;;;6.76;100.00;99621.38;5119454;28;19973;-59
2022/11/12 07:41:50;;;;;;;;;;;;;;;6.57;100.00;99617.59;5118014;28;19987;-60
2022/11/12 07:44:16;;;;;;;;;;;;;;;6.71;100.00;99618.50;5100935;28;20524;-59
2022/11/12 07:46:43;;;;;;;;;;;;;;;6.53;100.00;99623.50;5121387;28;20030;-59
2022/11/12 07:49:09;;;;;;;;;;;;;;;6.47;100.00;99623.25;5121570;28;19923;-58
2022/11/12 07:51:35;;;;;;;;;;;;;;;6.76;100.00;99635.47;5118110;28;19920;-59
2022/11/12 07:54:03;;;;;;;;;;;;;;;6.88;100.00;99623.28;5118755;28;19989;-59
2022/11/12 07:56:30;;;;;;;;;;;;;;;6.57;100.00;99624.72;5121119;28;19923;-59
2022/11/12 07:58:57;;;;;;;;;;;;;;;6.44;100.00;99630.78;5121414;28;19980;-59
2022/11/12 08:01:28;;;;;;;;;;;;;;;6.13;100.00;99628.50;5119015;28;19959;-59
2022/11/12 08:03:54;;;;;;;;;;;;;;;6.31;100.00;99620.88;5117656;28;19938;-60
2022/11/12 08:06:21;;;;;;;;;;;;;;;6.46;100.00;99618.97;5119331;28;20216;-58
2022/11/12 08:08:47;;;;;;;;;;;;;;;6.22;100.00;99613.31;5121163;28;19935;-59
2022/11/12 08:11:14;;;;;;;;;;;;;;;6.09;100.00;99618.50;5120507;28;19923;-58
2022/11/12 08:13:41;;;;;;;;;;;;;;;6.01;100.00;99619.44;5117746;28;19978;-58
2022/11/12 08:16:08;;;;;;;;;;;;;;;6.07;100.00;99615.19;5118040;28;19946;-60
2022/11/12 08:18:34;;;;;;;;;;;;;;;5.91;100.00;99616.31;5121358;28;19924;-59
2022/11/12 08:21:01;;;;;;;;;;;;;;;5.82;100.00;99622.72;5121558;28;20334;-59
2022/11/12 08:23:27;;;;;;;;;;;;;;;6.56;100.00;99620.47;5119434;28;19950;-59
2022/11/12 08:25:57;;;;;;;;;;;;;;;6.82;100.00;99623.25;5118099;28;19924;-59
2022/11/12 08:28:23;;;;;;;;;;;;;;;6.91;100.00;99622.06;5120200;28;19995;-59
2022/11/12 08:30:51;;;;;;;;;;;;;;;6.84;100.00;99622.00;5121337;28;19924;-58
2022/11/12 08:33:17;;;;;;;;;;;;;;;7.04;100.00;99628.25;5119959;28;19991;-59
2022/11/12 08:35:44;;;;;;;;;;;;;;;6.42;100.00;99630.97;5117479;28;19955;-58
2022/11/12 08:38:12;;;;;;;;;;;;;;;6.35;100.00;99630.09;5118138;28;19963;-58
2022/11/12 08:40:38;;;;;;;;;;;;;;;6.37;100.00;99635.25;5121234;28;19923;-60
2022/11/12 08:43:06;;;;;;;;;;;;;;;6.73;100.00;99640.34;5122902;28;19990;-60
2022/11/12 08:45:33;;;;;;;;;;;;;;;6.98;100.00;99646.81;5121973;28;20022;-58
2022/11/12 08:48:01;;;;;;;;;;;;;;;6.86;100.00;99641.25;5121708;28;19964;-59
2022/11/12 08:50:28;;;;;;;;;;;;;;;7.09;100.00;99651.56;5124641;28;19934;-59
2022/11/12 08:52:58;;;;;;;;;;;;;;;7.02;100.00;99653.38;5125947;28;19981;-59
2022/11/12 08:55:25;;;;;;;;;;;;;;;6.89;100.00;99640.84;5122858;28;19967;-59
2022/11/12 08:57:51;;;;;;;;;;;;;;;6.83;100.00;99646.13;5121886;28;20096;-59
2022/11/12 09:00:18;;;;;;;;;;;;;;;6.79;100.00;99644.88;5122788;28;19987;-60
2022/11/12 09:02:44;;;;;;;;;;;;;;;6.82;100.00;99639.16;5124973;28;19928;-59
2022/11/12 09:05:12;;;;;;;;;;;;;;;7.10;100.00;99649.72;5124525;28;20001;-60
2022/11/12 09:07:38;;;;;;;;;;;;;;;7.23;100.00;99642.63;5120991;28;19930;-59
2022/11/12 09:10:05;;;;;;;;;;;;;;;7.18;100.00;99644.25;5121029;28;20063;-58
2022/11/12 09:12:31;;;;;;;;;;;;;;;7.23;100.00;99649.78;5124429;28;19990;-60
2022/11/12 09:14:57;;;;;;;;;;;;;;;7.05;100.00;99643.19;5124976;28;19993;-59
2022/11/12 09:17:24;;;;;;;;;;;;;;;7.21;100.00;99644.66;5122672;28;20014;-59
2022/11/12 09:19:50;;;;;;;;;;;;;;;7.04;100.00;99635.41;5120987;28;20015;-59
2022/11/12 09:22:18;;;;;;;;;;;;;;;7.15;100.00;99648.09;5123179;28;19963;-61
2022/11/12 09:24:44;;;;;;;;;;;;;;;6.95;100.00;99640.06;5124680;28;20007;-59
2022/11/12 09:27:10;;;;;;;;;;;;;;;6.94;100.00;99650.88;5123854;28;19970;-59
2022/11/12 09:29:37;;;;;;;;;;;;;;;7.09;100.00;99650.75;5120751;28;19971;-59
2022/11/12 09:32:03;;;;;;;;;;;;;;;7.15;100.00;99655.28;5121226;28;19939;-59
2022/11/12 09:34:29;;;;;;;;;;;;;;;7.34;100.00;99658.00;5123723;28;19974;-59
2022/11/12 09:36:56;;;;;;;;;;;;;;;7.59;100.00;99653.78;5123965;28;19934;-60
2022/11/12 09:39:24;;;;;;;;;;;;;;;7.73;100.00;99649.31;5122188;28;19924;-59
2022/11/12 09:41:50;;;;;;;;;;;;;;;7.65;100.00;99643.34;5120456;28;19946;-58
2022/11/12 09:44:17;;;;;;;;;;;;;;;7.64;100.00;99645.22;5121735;28;19967;-60
2022/11/12 09:46:46;;;;;;;;;;;;;;;7.49;100.00;99648.00;5124143;28;20031;-59
2022/11/12 09:49:16;;;;;;;;;;;;;;;7.60;100.00;99650.09;5123217;28;19924;-60
2022/11/12 09:51:45;;;;;;;;;;;;;;;7.72;100.00;99642.34;5120578;28;19987;-59
2022/11/12 09:54:19;;;;;;;;;;;;;;;7.55;100.00;99636.56;5120003;28;20004;-60
2022/11/12 09:56:48;;;;;;;;;;;;;;;7.22;100.00;99635.66;5124011;28;20010;-59
2022/11/12 09:59:15;;;;;;;;;;;;;;;7.30;100.00;99634.69;5123130;28;19990;-59
2022/11/12 10:01:46;;;;;;;;;;;;;;;7.51;100.00;99635.34;5120678;28;19928;-58
2022/11/12 10:04:23;;;;;;;;;;;;;;;7.60;100.00;99634.16;5121054;28;19980;-59
2022/11/12 10:06:54;;;;;;;;;;;;;;;7.70;100.00;99632.94;5124004;28;19959;-60
2022/11/12 10:09:24;;;;;;;;;;;;;;;7.65;100.00;99638.03;5122041;28;19995;-59
2022/11/12 10:18:01;;;;;;;;;;;;;;;7.47;100.00;99618.16;5120283;28;19928;-59
2022/11/12 10:20:32;;;;;;;;;;;;;;;7.58;100.00;99625.53;5123044;28;19924;-61
2022/11/12 10:23:05;;;;;;;;;;;;;;;7.67;100.00;99622.69;5124523;28;19958;-59
2022/11/12 10:25:32;;;;;;;;;;;;;;;7.59;100.00;99608.56;5120545;28;20080;-59
2022/11/12 10:28:02;;;;;;;;;;;;;;;7.49;100.00;99610.78;5120471;28;19992;-60
2022/11/12 10:30:28;;;;;;;;;;;;;;;7.65;100.00;99614.09;5123109;28;19980;-59
2022/11/12 10:32:54;;;;;;;;;;;;;;;7.84;100.00;99600.00;5123604;28;19974;-58
2022/11/12 10:35:22;;;;;;;;;;;;;;;7.81;100.00;99593.25;5103601;28;20419;-58
2022/11/12 10:37:54;;;;;;;;;;;;;;;7.76;100.00;99587.72;5120272;28;19995;-58
2022/11/12 10:40:26;;;;;;;;;;;;;;;7.93;100.00;99582.81;5121613;28;19975;-60
2022/11/12 10:42:57;;;;;;;;;;;;;;;7.68;100.00;99587.09;5123319;28;19923;-59
2022/11/12 10:45:25;;;;;;;;;;;;;;;7.49;100.00;99581.53;5120891;28;19935;-59
2022/11/12 10:47:51;;;;;;;;;;;;;;;7.36;100.00;99578.88;5119692;28;20022;-58
2022/11/12 10:50:20;;;;;;;;;;;;;;;7.46;100.00;99584.63;5120753;28;19987;-59
2022/11/12 10:52:54;;;;;;;;;;;;;;;7.42;100.00;99580.75;5123481;28;19992;-59
2022/11/12 10:55:21;;;;;;;;;;;;;;;7.55;100.00;99578.06;5121101;28;19976;-59
2022/11/12 10:58:00;;;;;;;;;;;;;;;7.37;100.00;99583.16;5119195;28;19983;-59
2022/11/12 11:00:27;;;;;;;;;;;;;;;7.28;100.00;99575.56;5121788;28;19975;-58
2022/11/12 11:02:54;;;;;;;;;;;;;;;7.11;100.00;99579.63;5122568;28;20342;-58
2022/11/12 11:05:31;;;;;;;;;;;;;;;7.02;100.00;99576.34;5120391;28;19951;-59
2022/11/12 11:07:57;;;;;;;;;;;;;;;6.97;100.00;99571.63;5118888;28;19934;-59
2022/11/12 11:10:25;;;;;;;;;;;;;;;7.06;100.00;99578.38;5121191;28;19924;-60
2022/11/12 11:13:07;;;;;;;;;;;;;;;7.00;100.00;99581.00;5122326;28;19923;-60
2022/11/12 11:15:35;;;;;;;;;;;;;;;7.29;100.00;99574.56;5118621;28;19983;-59
2022/11/12 11:18:01;;;;;;;;;;;;;;;7.61;100.00;99561.31;5118873;28;19935;-58
2022/11/12 11:20:30;;;;;;;;;;;;;;;7.61;100.00;99574.59;5121314;28;20015;-60
2022/11/12 11:23:01;;;;;;;;;;;;;;;7.57;100.00;99569.91;5122860;28;19927;-59
2022/11/12 11:25:28;;;;;;;;;;;;;;;7.40;100.00;99566.00;5119336;28;19979;-58
2022/11/12 11:28:03;;;;;;;;;;;;;;;7.32;100.00;99566.19;5118686;28;19931;-59
2022/11/12 11:30:30;;;;;;;;;;;;;;;7.27;100.00;99558.81;5121584;28;19971;-58
2022/11/12 11:33:04;;;;;;;;;;;;;;;7.07;100.00;99557.97;5121826;28;19974;-59
2022/11/12 11:35:36;;;;;;;;;;;;;;;7.21;100.00;99550.84;5118572;28;19924;-58
2022/11/12 11:38:11;;;;;;;;;;;;;;;7.35;100.00;99550.66;5118409;28;19924;-58
2022/11/12 11:40:40;;;;;;;;;;;;;;;7.56;100.00;99547.81;5118000;28;19967;-60
2022/11/12 11:43:21;;;;;;;;;;;;;;;7.73;100.00;99542.94;5118086;28;19930;-58
2022/11/12 11:45:55;;;;;;;;;;;;;;;7.73;100.00;99534.94;5118237;28;19924;-59
2022/11/12 11:48:29;;;;;;;;;;;;;;;7.74;100.00;99533.09;5119638;28;20341;-58
2022/11/12 11:50:59;;;;;;;;;;;;;;;7.67;100.00;99541.09;5121612;28;20006;-59
2022/11/12 11:53:27;;;;;;;;;;;;;;;7.58;100.00;99526.38;5119725;28;19923;-59
2022/11/12 11:55:54;;;;;;;;;;;;;;;7.54;100.00;99541.06;5117925;28;19987;-59
2022/11/12 11:58:35;;;;;;;;;;;;;;;7.50;100.00;99548.63;5119841;28;19973;-59
2022/11/12 12:01:06;;;;;;;;;;;;;;;7.48;100.00;99539.22;5103229;28;19924;-59
2022/11/12 12:03:45;;;;;;;;;;;;;;;7.56;100.00;99547.81;5118195;28;19955;-59
2022/11/12 12:06:19;;;;;;;;;;;;;;;7.25;100.00;99550.22;5118528;28;19992;-60
2022/11/12 12:08:53;;;;;;;;;;;;;;;7.18;100.00;99549.38;5121494;28;19919;-59
2022/11/12 12:11:22;;;;;;;;;;;;;;;7.13;100.00;99557.16;5120188;28;19945;-59
2022/11/12 12:14:01;;;;;;;;;;;;;;;7.11;100.00;99548.56;5099794;28;19924;-60
2022/11/12 12:16:42;;;;;;;;;;;;;;;7.04;100.00;99553.03;5120830;28;20014;-61
2022/11/12 12:19:15;;;;;;;;;;;;;;;6.98;100.00;99545.88;5121248;28;19966;-60
2022/11/12 12:21:46;;;;;;;;;;;;;;;6.79;100.00;99549.28;5117958;28;19963;-60
2022/11/12 12:24:15;;;;;;;;;;;;;;;6.76;100.00;99549.69;5119440;28;19982;-60
2022/11/12 12:26:44;;;;;;;;;;;;;;;6.75;100.00;99556.81;5121552;28;19932;-63
2022/11/12 12:29:13;;;;;;;;;;;;;;;6.67;100.00;99550.88;5121478;28;19944;-60
2022/11/12 12:31:43;;;;;;;;;;;;;;;6.79;100.00;99543.97;5118215;28;19924;-61
2022/11/12 12:34:18;;;;;;;;;;;;;;;6.89;100.00;99539.09;5118400;28;19925;-59
2022/11/12 12:36:45;;;;;;;;;;;;;;;6.99;100.00;99545.66;5121491;28;20026;-59
2022/11/12 12:39:13;;;;;;;;;;;;;;;6.93;100.00;99548.31;5121080;28;19924;-59
2022/11/12 12:41:45;;;;;;;;;;;;;;;6.87;100.00;99547.25;5117544;28;19975;-59
2022/11/12 12:44:11;;;;;;;;;;;;;;;6.87;100.00;99546.47;5118317;28;20031;-59
2022/11/12 12:46:40;;;;;;;;;;;;;;;6.84;100.00;99542.34;5121160;28;19987;-59
2022/11/12 12:49:07;;;;;;;;;;;;;;;6.78;100.00;99542.31;5121184;28;19978;-60
2022/11/12 12:51:34;;;;;;;;;;;;;;;6.87;100.00;99544.59;5117553;28;19924;-58
2022/11/12 12:54:01;;;;;;;;;;;;;;;6.88;100.00;99543.59;5118511;28;19939;-58
2022/11/12 12:56:44;;;;;;;;;;;;;;;6.72;100.00;99543.94;5119915;28;19987;-59
2022/11/12 12:59:18;;;;;;;;;;;;;;;6.70;100.00;99543.31;5120599;28;19930;-59
2022/11/12 13:01:53;;;;;;;;;;;;;;;6.81;100.00;99536.59;5117438;28;20015;-60
2022/11/12 13:04:43;;;;;;;;;;;;;;;6.86;100.00;99536.84;5119121;28;19955;-59
2022/11/12 13:07:10;;;;;;;;;;;;;;;7.04;100.00;99531.78;5120841;28;19942;-58
2022/11/12 13:09:37;;;;;;;;;;;;;;;7.10;100.00;99541.63;5117670;28;19971;-59
2022/11/12 13:12:22;;;;;;;;;;;;;;;7.07;100.00;99542.03;5117720;28;19928;-59
2022/11/12 13:14:53;;;;;;;;;;;;;;;7.08;100.00;99533.03;5117239;28;20006;-59